sensor_id;sensor_type;location;lat;lon;timestamp;P1;durP1;ratioP1;P2;durP2;ratioP2
75400;SDS011;63974;47.538;18.972;2023-06-04T00:01:35;5.55;;;2.90;;
75400;SDS011;63974;47.538;18.972;2023-06-04T00:04:38;8.10;;;3.22;;
75400;SDS011;63974;47.538;18.972;2023-06-04T00:07:41;4.72;;;3.28;;
75400;SDS011;63974;47.538;18.972;2023-06-04T00:10:44;4.85;;;3.03;;
75400;SDS011;63974;47.538;18.972;2023-06-04T00:13:47;6.27;;;3.00;;
75400;SDS011;63974;47.538;18.972;2023-06-04T00:16:50;8.00;;;3.03;;
75400;SDS011;63974;47.538;18.972;2023-06-04T00:19:53;4.90;;;3.47;;
75400;SDS011;63974;47.538;18.972;2023-06-04T00:22:56;6.03;;;3.42;;
75400;SDS011;63974;47.538;18.972;2023-06-04T00:25:58;6.28;;;3.10;;
75400;SDS011;63974;47.538;18.972;2023-06-04T00:29:01;6.27;;;3.03;;
75400;SDS011;63974;47.538;18.972;2023-06-04T00:32:04;5.82;;;3.03;;
75400;SDS011;63974;47.538;18.972;2023-06-04T00:35:08;5.88;;;2.97;;
75400;SDS011;63974;47.538;18.972;2023-06-04T00:38:11;5.30;;;2.72;;
75400;SDS011;63974;47.538;18.972;2023-06-04T00:41:14;4.95;;;2.80;;
75400;SDS011;63974;47.538;18.972;2023-06-04T00:44:17;6.97;;;3.23;;
75400;SDS011;63974;47.538;18.972;2023-06-04T00:47:20;4.80;;;2.90;;
75400;SDS011;63974;47.538;18.972;2023-06-04T00:50:24;6.60;;;2.60;;
75400;SDS011;63974;47.538;18.972;2023-06-04T00:53:26;5.05;;;3.10;;
75400;SDS011;63974;47.538;18.972;2023-06-04T00:56:29;7.28;;;3.17;;
75400;SDS011;63974;47.538;18.972;2023-06-04T00:59:32;7.50;;;2.70;;
75400;SDS011;63974;47.538;18.972;2023-06-04T01:02:37;4.88;;;2.97;;
75400;SDS011;63974;47.538;18.972;2023-06-04T01:05:48;5.65;;;2.90;;
75400;SDS011;63974;47.538;18.972;2023-06-04T01:08:58;4.82;;;2.80;;
75400;SDS011;63974;47.538;18.972;2023-06-04T01:12:05;5.88;;;2.67;;
75400;SDS011;63974;47.538;18.972;2023-06-04T01:15:09;3.80;;;2.40;;
75400;SDS011;63974;47.538;18.972;2023-06-04T01:18:15;8.25;;;3.03;;
75400;SDS011;63974;47.538;18.972;2023-06-04T01:21:30;4.43;;;2.47;;
75400;SDS011;63974;47.538;18.972;2023-06-04T01:24:37;6.95;;;2.80;;
75400;SDS011;63974;47.538;18.972;2023-06-04T01:27:48;6.47;;;3.03;;
75400;SDS011;63974;47.538;18.972;2023-06-04T01:30:59;9.33;;;2.80;;
75400;SDS011;63974;47.538;18.972;2023-06-04T01:34:07;10.35;;;2.70;;
75400;SDS011;63974;47.538;18.972;2023-06-04T01:37:11;6.78;;;2.65;;
75400;SDS011;63974;47.538;18.972;2023-06-04T01:40:14;5.40;;;2.85;;
75400;SDS011;63974;47.538;18.972;2023-06-04T01:43:17;6.25;;;2.60;;
75400;SDS011;63974;47.538;18.972;2023-06-04T01:46:20;4.37;;;2.50;;
75400;SDS011;63974;47.538;18.972;2023-06-04T01:49:23;5.57;;;2.60;;
75400;SDS011;63974;47.538;18.972;2023-06-04T01:52:26;5.28;;;2.28;;
75400;SDS011;63974;47.538;18.972;2023-06-04T01:55:29;4.45;;;2.38;;
75400;SDS011;63974;47.538;18.972;2023-06-04T01:58:36;5.50;;;2.50;;
75400;SDS011;63974;47.538;18.972;2023-06-04T02:01:38;6.80;;;2.37;;
75400;SDS011;63974;47.538;18.972;2023-06-04T02:04:41;4.95;;;2.63;;
75400;SDS011;63974;47.538;18.972;2023-06-04T02:07:45;9.88;;;2.20;;
75400;SDS011;63974;47.538;18.972;2023-06-04T02:10:50;5.45;;;1.92;;
75400;SDS011;63974;47.538;18.972;2023-06-04T02:13:53;6.82;;;2.50;;
75400;SDS011;63974;47.538;18.972;2023-06-04T02:16:56;7.00;;;2.30;;
75400;SDS011;63974;47.538;18.972;2023-06-04T02:20:04;3.85;;;2.47;;
75400;SDS011;63974;47.538;18.972;2023-06-04T02:23:08;3.58;;;1.80;;
75400;SDS011;63974;47.538;18.972;2023-06-04T02:26:11;4.22;;;2.10;;
75400;SDS011;63974;47.538;18.972;2023-06-04T02:29:13;2.97;;;1.92;;
75400;SDS011;63974;47.538;18.972;2023-06-04T02:32:17;5.10;;;1.73;;
75400;SDS011;63974;47.538;18.972;2023-06-04T02:35:20;2.65;;;1.48;;
75400;SDS011;63974;47.538;18.972;2023-06-04T02:38:25;4.82;;;2.10;;
75400;SDS011;63974;47.538;18.972;2023-06-04T02:41:28;4.93;;;1.75;;
75400;SDS011;63974;47.538;18.972;2023-06-04T02:44:30;3.78;;;2.13;;
75400;SDS011;63974;47.538;18.972;2023-06-04T02:47:33;3.60;;;1.73;;
75400;SDS011;63974;47.538;18.972;2023-06-04T02:50:36;4.75;;;1.65;;
75400;SDS011;63974;47.538;18.972;2023-06-04T02:53:39;4.55;;;2.00;;
75400;SDS011;63974;47.538;18.972;2023-06-04T02:56:43;2.80;;;1.58;;
75400;SDS011;63974;47.538;18.972;2023-06-04T02:59:46;4.47;;;2.25;;
75400;SDS011;63974;47.538;18.972;2023-06-04T03:02:49;3.00;;;1.37;;
75400;SDS011;63974;47.538;18.972;2023-06-04T03:05:52;3.83;;;2.08;;
75400;SDS011;63974;47.538;18.972;2023-06-04T03:08:56;5.18;;;1.90;;
75400;SDS011;63974;47.538;18.972;2023-06-04T03:12:02;4.50;;;1.70;;
75400;SDS011;63974;47.538;18.972;2023-06-04T03:15:06;4.13;;;1.80;;
75400;SDS011;63974;47.538;18.972;2023-06-04T03:18:09;5.77;;;1.90;;
75400;SDS011;63974;47.538;18.972;2023-06-04T03:21:12;5.10;;;1.60;;
75400;SDS011;63974;47.538;18.972;2023-06-04T03:24:16;4.72;;;1.85;;
75400;SDS011;63974;47.538;18.972;2023-06-04T03:27:19;8.25;;;1.77;;
75400;SDS011;63974;47.538;18.972;2023-06-04T03:30:22;4.72;;;1.80;;
75400;SDS011;63974;47.538;18.972;2023-06-04T03:33:37;3.03;;;1.50;;
75400;SDS011;63974;47.538;18.972;2023-06-04T03:36:40;3.50;;;1.45;;
75400;SDS011;63974;47.538;18.972;2023-06-04T03:39:43;4.53;;;1.60;;
75400;SDS011;63974;47.538;18.972;2023-06-04T03:42:49;4.97;;;1.50;;
75400;SDS011;63974;47.538;18.972;2023-06-04T03:45:53;4.88;;;1.85;;
75400;SDS011;63974;47.538;18.972;2023-06-04T03:48:57;2.87;;;1.43;;
75400;SDS011;63974;47.538;18.972;2023-06-04T03:52:01;5.50;;;1.70;;
75400;SDS011;63974;47.538;18.972;2023-06-04T03:55:05;7.32;;;1.60;;
75400;SDS011;63974;47.538;18.972;2023-06-04T03:58:10;3.55;;;1.75;;
75400;SDS011;63974;47.538;18.972;2023-06-04T04:01:18;7.70;;;1.98;;
75400;SDS011;63974;47.538;18.972;2023-06-04T04:04:22;3.40;;;1.60;;
75400;SDS011;63974;47.538;18.972;2023-06-04T04:07:25;2.63;;;1.83;;
75400;SDS011;63974;47.538;18.972;2023-06-04T04:10:28;3.90;;;2.00;;
75400;SDS011;63974;47.538;18.972;2023-06-04T04:13:31;5.47;;;1.58;;
75400;SDS011;63974;47.538;18.972;2023-06-04T04:16:35;2.78;;;1.67;;
75400;SDS011;63974;47.538;18.972;2023-06-04T04:19:39;7.10;;;1.83;;
75400;SDS011;63974;47.538;18.972;2023-06-04T04:22:42;3.55;;;1.20;;
75400;SDS011;63974;47.538;18.972;2023-06-04T04:25:46;4.30;;;1.58;;
75400;SDS011;63974;47.538;18.972;2023-06-04T04:28:51;4.90;;;1.77;;
75400;SDS011;63974;47.538;18.972;2023-06-04T04:32:01;4.35;;;1.55;;
75400;SDS011;63974;47.538;18.972;2023-06-04T04:35:18;2.70;;;1.27;;
75400;SDS011;63974;47.538;18.972;2023-06-04T04:38:22;3.58;;;1.30;;
75400;SDS011;63974;47.538;18.972;2023-06-04T04:41:32;2.72;;;1.15;;
75400;SDS011;63974;47.538;18.972;2023-06-04T04:44:36;4.97;;;1.13;;
75400;SDS011;63974;47.538;18.972;2023-06-04T04:47:39;2.38;;;1.27;;
75400;SDS011;63974;47.538;18.972;2023-06-04T04:50:42;5.57;;;1.37;;
75400;SDS011;63974;47.538;18.972;2023-06-04T04:53:45;4.60;;;1.50;;
75400;SDS011;63974;47.538;18.972;2023-06-04T04:56:48;5.43;;;1.58;;
75400;SDS011;63974;47.538;18.972;2023-06-04T05:00:06;4.55;;;1.27;;
75400;SDS011;63974;47.538;18.972;2023-06-04T05:03:15;3.15;;;1.10;;
75400;SDS011;63974;47.538;18.972;2023-06-04T05:06:18;2.33;;;0.77;;
75400;SDS011;63974;47.538;18.972;2023-06-04T05:09:21;4.32;;;1.05;;
75400;SDS011;63974;47.538;18.972;2023-06-04T05:12:25;3.75;;;1.17;;
75400;SDS011;63974;47.538;18.972;2023-06-04T05:15:29;4.32;;;1.45;;
75400;SDS011;63974;47.538;18.972;2023-06-04T05:18:33;2.67;;;0.82;;
75400;SDS011;63974;47.538;18.972;2023-06-04T05:21:38;5.50;;;1.10;;
75400;SDS011;63974;47.538;18.972;2023-06-04T05:24:41;3.33;;;1.13;;
75400;SDS011;63974;47.538;18.972;2023-06-04T05:27:44;2.45;;;1.02;;
75400;SDS011;63974;47.538;18.972;2023-06-04T05:30:48;3.13;;;1.10;;
75400;SDS011;63974;47.538;18.972;2023-06-04T05:33:52;2.17;;;1.10;;
75400;SDS011;63974;47.538;18.972;2023-06-04T05:36:57;4.73;;;0.90;;
75400;SDS011;63974;47.538;18.972;2023-06-04T05:40:01;2.10;;;0.95;;
75400;SDS011;63974;47.538;18.972;2023-06-04T05:43:09;4.78;;;0.68;;
75400;SDS011;63974;47.538;18.972;2023-06-04T05:46:13;2.70;;;0.73;;
75400;SDS011;63974;47.538;18.972;2023-06-04T05:49:17;2.38;;;1.23;;
75400;SDS011;63974;47.538;18.972;2023-06-04T05:52:20;4.57;;;0.87;;
75400;SDS011;63974;47.538;18.972;2023-06-04T05:55:23;2.83;;;1.10;;
75400;SDS011;63974;47.538;18.972;2023-06-04T05:58:26;2.45;;;0.88;;
75400;SDS011;63974;47.538;18.972;2023-06-04T06:01:29;2.28;;;0.80;;
75400;SDS011;63974;47.538;18.972;2023-06-04T06:04:32;3.42;;;1.25;;
75400;SDS011;63974;47.538;18.972;2023-06-04T06:07:35;2.03;;;1.10;;
75400;SDS011;63974;47.538;18.972;2023-06-04T06:10:38;2.75;;;1.10;;
75400;SDS011;63974;47.538;18.972;2023-06-04T06:13:41;2.75;;;1.00;;
75400;SDS011;63974;47.538;18.972;2023-06-04T06:16:45;2.58;;;0.93;;
75400;SDS011;63974;47.538;18.972;2023-06-04T06:19:49;2.95;;;1.25;;
75400;SDS011;63974;47.538;18.972;2023-06-04T06:22:52;2.47;;;1.00;;
75400;SDS011;63974;47.538;18.972;2023-06-04T06:25:56;1.77;;;1.13;;
75400;SDS011;63974;47.538;18.972;2023-06-04T06:29:03;2.58;;;0.63;;
75400;SDS011;63974;47.538;18.972;2023-06-04T06:32:07;2.95;;;1.30;;
75400;SDS011;63974;47.538;18.972;2023-06-04T06:35:10;3.33;;;1.10;;
75400;SDS011;63974;47.538;18.972;2023-06-04T06:38:13;2.93;;;1.37;;
75400;SDS011;63974;47.538;18.972;2023-06-04T06:41:19;2.22;;;1.27;;
75400;SDS011;63974;47.538;18.972;2023-06-04T06:44:23;1.20;;;0.93;;
75400;SDS011;63974;47.538;18.972;2023-06-04T06:47:26;2.38;;;1.10;;
75400;SDS011;63974;47.538;18.972;2023-06-04T06:50:28;2.33;;;1.42;;
75400;SDS011;63974;47.538;18.972;2023-06-04T06:53:32;1.33;;;1.00;;
75400;SDS011;63974;47.538;18.972;2023-06-04T06:56:34;4.22;;;1.60;;
75400;SDS011;63974;47.538;18.972;2023-06-04T06:59:37;2.25;;;1.20;;
75400;SDS011;63974;47.538;18.972;2023-06-04T07:02:40;3.35;;;0.93;;
75400;SDS011;63974;47.538;18.972;2023-06-04T07:05:43;2.80;;;1.10;;
75400;SDS011;63974;47.538;18.972;2023-06-04T07:08:46;2.53;;;1.20;;
75400;SDS011;63974;47.538;18.972;2023-06-04T07:11:50;1.65;;;0.90;;
75400;SDS011;63974;47.538;18.972;2023-06-04T07:14:53;1.92;;;1.00;;
75400;SDS011;63974;47.538;18.972;2023-06-04T07:17:56;1.90;;;0.95;;
75400;SDS011;63974;47.538;18.972;2023-06-04T07:20:58;2.10;;;1.05;;
75400;SDS011;63974;47.538;18.972;2023-06-04T07:24:01;2.77;;;0.97;;
75400;SDS011;63974;47.538;18.972;2023-06-04T07:27:11;2.17;;;1.13;;
75400;SDS011;63974;47.538;18.972;2023-06-04T07:30:15;3.40;;;1.40;;
75400;SDS011;63974;47.538;18.972;2023-06-04T07:33:17;2.17;;;1.08;;
75400;SDS011;63974;47.538;18.972;2023-06-04T07:36:20;5.68;;;1.20;;
75400;SDS011;63974;47.538;18.972;2023-06-04T07:39:23;2.73;;;1.00;;
75400;SDS011;63974;47.538;18.972;2023-06-04T07:42:27;2.45;;;0.90;;
75400;SDS011;63974;47.538;18.972;2023-06-04T07:45:30;2.75;;;1.13;;
75400;SDS011;63974;47.538;18.972;2023-06-04T07:48:37;1.92;;;1.15;;
75400;SDS011;63974;47.538;18.972;2023-06-04T07:51:39;2.70;;;1.27;;
75400;SDS011;63974;47.538;18.972;2023-06-04T07:54:42;3.73;;;1.23;;
75400;SDS011;63974;47.538;18.972;2023-06-04T07:57:45;4.13;;;0.98;;
75400;SDS011;63974;47.538;18.972;2023-06-04T08:00:48;2.65;;;1.20;;
75400;SDS011;63974;47.538;18.972;2023-06-04T08:03:51;2.13;;;1.55;;
75400;SDS011;63974;47.538;18.972;2023-06-04T08:06:54;1.90;;;1.33;;
75400;SDS011;63974;47.538;18.972;2023-06-04T08:09:57;3.03;;;1.40;;
75400;SDS011;63974;47.538;18.972;2023-06-04T08:13:00;3.63;;;1.30;;
75400;SDS011;63974;47.538;18.972;2023-06-04T08:16:03;2.75;;;1.30;;
75400;SDS011;63974;47.538;18.972;2023-06-04T08:19:06;1.95;;;1.30;;
75400;SDS011;63974;47.538;18.972;2023-06-04T08:22:10;2.10;;;1.30;;
75400;SDS011;63974;47.538;18.972;2023-06-04T08:25:13;3.37;;;1.70;;
75400;SDS011;63974;47.538;18.972;2023-06-04T08:28:17;1.95;;;1.13;;
75400;SDS011;63974;47.538;18.972;2023-06-04T08:31:21;2.22;;;1.52;;
75400;SDS011;63974;47.538;18.972;2023-06-04T08:34:24;3.17;;;1.52;;
75400;SDS011;63974;47.538;18.972;2023-06-04T08:37:27;3.42;;;1.70;;
75400;SDS011;63974;47.538;18.972;2023-06-04T08:40:30;2.77;;;1.60;;
75400;SDS011;63974;47.538;18.972;2023-06-04T08:43:33;4.43;;;1.75;;
75400;SDS011;63974;47.538;18.972;2023-06-04T08:46:37;2.85;;;1.48;;
75400;SDS011;63974;47.538;18.972;2023-06-04T08:49:44;3.58;;;1.80;;
75400;SDS011;63974;47.538;18.972;2023-06-04T08:52:55;2.95;;;1.92;;
75400;SDS011;63974;47.538;18.972;2023-06-04T08:55:58;2.97;;;1.70;;
75400;SDS011;63974;47.538;18.972;2023-06-04T08:59:06;3.38;;;1.77;;
75400;SDS011;63974;47.538;18.972;2023-06-04T09:02:10;3.75;;;1.73;;
75400;SDS011;63974;47.538;18.972;2023-06-04T09:05:19;3.58;;;2.28;;
75400;SDS011;63974;47.538;18.972;2023-06-04T09:08:22;3.33;;;1.95;;
75400;SDS011;63974;47.538;18.972;2023-06-04T09:11:32;2.20;;;1.73;;
75400;SDS011;63974;47.538;18.972;2023-06-04T09:14:38;2.15;;;1.50;;
75400;SDS011;63974;47.538;18.972;2023-06-04T09:17:40;4.15;;;1.73;;
75400;SDS011;63974;47.538;18.972;2023-06-04T09:20:43;3.60;;;2.25;;
75400;SDS011;63974;47.538;18.972;2023-06-04T09:23:47;4.25;;;2.20;;
75400;SDS011;63974;47.538;18.972;2023-06-04T09:26:50;3.80;;;2.10;;
75400;SDS011;63974;47.538;18.972;2023-06-04T09:29:54;3.20;;;2.08;;
75400;SDS011;63974;47.538;18.972;2023-06-04T09:33:08;2.60;;;2.20;;
75400;SDS011;63974;47.538;18.972;2023-06-04T09:36:12;2.50;;;1.90;;
75400;SDS011;63974;47.538;18.972;2023-06-04T09:39:15;3.40;;;2.15;;
75400;SDS011;63974;47.538;18.972;2023-06-04T09:42:19;5.13;;;2.83;;
75400;SDS011;63974;47.538;18.972;2023-06-04T09:45:32;5.15;;;1.90;;
75400;SDS011;63974;47.538;18.972;2023-06-04T09:48:37;3.60;;;2.13;;
75400;SDS011;63974;47.538;18.972;2023-06-04T09:51:46;3.45;;;2.10;;
75400;SDS011;63974;47.538;18.972;2023-06-04T09:54:49;2.25;;;1.80;;
75400;SDS011;63974;47.538;18.972;2023-06-04T09:57:53;3.77;;;2.10;;
75400;SDS011;63974;47.538;18.972;2023-06-04T10:00:57;3.70;;;2.17;;
75400;SDS011;63974;47.538;18.972;2023-06-04T10:04:02;5.18;;;2.20;;
75400;SDS011;63974;47.538;18.972;2023-06-04T10:07:07;5.18;;;2.75;;
75400;SDS011;63974;47.538;18.972;2023-06-04T10:10:16;5.00;;;2.10;;
75400;SDS011;63974;47.538;18.972;2023-06-04T10:13:23;4.20;;;2.53;;
75400;SDS011;63974;47.538;18.972;2023-06-04T10:16:28;5.03;;;2.15;;
75400;SDS011;63974;47.538;18.972;2023-06-04T10:19:36;3.45;;;1.80;;
75400;SDS011;63974;47.538;18.972;2023-06-04T10:22:40;4.28;;;2.38;;
75400;SDS011;63974;47.538;18.972;2023-06-04T10:25:44;4.60;;;2.38;;
75400;SDS011;63974;47.538;18.972;2023-06-04T10:28:47;4.70;;;2.67;;
75400;SDS011;63974;47.538;18.972;2023-06-04T10:31:54;4.10;;;2.70;;
75400;SDS011;63974;47.538;18.972;2023-06-04T10:34:57;7.03;;;3.30;;
75400;SDS011;63974;47.538;18.972;2023-06-04T10:38:18;4.43;;;2.65;;
75400;SDS011;63974;47.538;18.972;2023-06-04T10:41:23;4.32;;;2.75;;
75400;SDS011;63974;47.538;18.972;2023-06-04T10:44:27;5.87;;;3.20;;
75400;SDS011;63974;47.538;18.972;2023-06-04T10:47:30;4.65;;;2.22;;
75400;SDS011;63974;47.538;18.972;2023-06-04T10:50:58;4.53;;;3.13;;
75400;SDS011;63974;47.538;18.972;2023-06-04T10:54:00;3.05;;;2.80;;
75400;SDS011;63974;47.538;18.972;2023-06-04T10:57:11;4.80;;;2.58;;
75400;SDS011;63974;47.538;18.972;2023-06-04T11:00:14;3.27;;;2.23;;
75400;SDS011;63974;47.538;18.972;2023-06-04T11:03:18;3.75;;;3.10;;
75400;SDS011;63974;47.538;18.972;2023-06-04T11:06:23;4.68;;;2.95;;
75400;SDS011;63974;47.538;18.972;2023-06-04T11:09:30;3.65;;;3.33;;
75400;SDS011;63974;47.538;18.972;2023-06-04T11:12:42;3.70;;;2.80;;
75400;SDS011;63974;47.538;18.972;2023-06-04T11:15:49;4.00;;;2.67;;
75400;SDS011;63974;47.538;18.972;2023-06-04T11:18:57;3.92;;;3.50;;
75400;SDS011;63974;47.538;18.972;2023-06-04T11:22:01;5.22;;;3.25;;
75400;SDS011;63974;47.538;18.972;2023-06-04T11:25:04;4.28;;;2.90;;
75400;SDS011;63974;47.538;18.972;2023-06-04T11:28:07;5.22;;;3.10;;
75400;SDS011;63974;47.538;18.972;2023-06-04T11:31:10;4.57;;;3.30;;
75400;SDS011;63974;47.538;18.972;2023-06-04T11:34:30;5.78;;;3.80;;
75400;SDS011;63974;47.538;18.972;2023-06-04T11:37:34;4.22;;;3.58;;
75400;SDS011;63974;47.538;18.972;2023-06-04T11:40:37;3.65;;;3.05;;
75400;SDS011;63974;47.538;18.972;2023-06-04T11:43:40;4.65;;;3.50;;
75400;SDS011;63974;47.538;18.972;2023-06-04T11:46:45;5.27;;;3.67;;
75400;SDS011;63974;47.538;18.972;2023-06-04T11:49:54;4.70;;;3.72;;
75400;SDS011;63974;47.538;18.972;2023-06-04T11:53:00;4.63;;;3.55;;
75400;SDS011;63974;47.538;18.972;2023-06-04T11:56:05;5.38;;;3.50;;
75400;SDS011;63974;47.538;18.972;2023-06-04T11:59:08;5.75;;;3.83;;
75400;SDS011;63974;47.538;18.972;2023-06-04T12:02:13;5.13;;;3.33;;
75400;SDS011;63974;47.538;18.972;2023-06-04T12:05:16;6.22;;;3.55;;
75400;SDS011;63974;47.538;18.972;2023-06-04T12:08:23;6.00;;;3.83;;
75400;SDS011;63974;47.538;18.972;2023-06-04T12:14:35;3.83;;;3.33;;
75400;SDS011;63974;47.538;18.972;2023-06-04T12:17:48;5.50;;;3.80;;
75400;SDS011;63974;47.538;18.972;2023-06-04T12:20:52;5.40;;;2.90;;
75400;SDS011;63974;47.538;18.972;2023-06-04T12:27:12;7.85;;;4.15;;
75400;SDS011;63974;47.538;18.972;2023-06-04T12:30:15;3.67;;;3.30;;
75400;SDS011;63974;47.538;18.972;2023-06-04T12:33:18;4.03;;;2.93;;
75400;SDS011;63974;47.538;18.972;2023-06-04T12:36:21;5.53;;;3.60;;
75400;SDS011;63974;47.538;18.972;2023-06-04T12:39:23;3.95;;;3.58;;
75400;SDS011;63974;47.538;18.972;2023-06-04T12:42:26;3.47;;;2.90;;
75400;SDS011;63974;47.538;18.972;2023-06-04T12:45:31;6.47;;;3.50;;
75400;SDS011;63974;47.538;18.972;2023-06-04T12:48:34;3.80;;;3.40;;
75400;SDS011;63974;47.538;18.972;2023-06-04T12:51:36;5.25;;;4.13;;
75400;SDS011;63974;47.538;18.972;2023-06-04T12:54:41;5.70;;;3.95;;
75400;SDS011;63974;47.538;18.972;2023-06-04T12:57:45;5.93;;;3.90;;
75400;SDS011;63974;47.538;18.972;2023-06-04T13:00:48;4.38;;;3.83;;
75400;SDS011;63974;47.538;18.972;2023-06-04T13:03:51;6.03;;;3.73;;
75400;SDS011;63974;47.538;18.972;2023-06-04T13:06:54;5.72;;;3.85;;
75400;SDS011;63974;47.538;18.972;2023-06-04T13:10:01;5.93;;;3.95;;
75400;SDS011;63974;47.538;18.972;2023-06-04T13:13:04;4.57;;;4.10;;
75400;SDS011;63974;47.538;18.972;2023-06-04T13:16:07;4.82;;;4.22;;
75400;SDS011;63974;47.538;18.972;2023-06-04T13:19:11;4.90;;;3.90;;
75400;SDS011;63974;47.538;18.972;2023-06-04T13:22:13;4.35;;;3.90;;
75400;SDS011;63974;47.538;18.972;2023-06-04T13:25:16;4.75;;;4.32;;
75400;SDS011;63974;47.538;18.972;2023-06-04T13:28:19;5.25;;;4.03;;
75400;SDS011;63974;47.538;18.972;2023-06-04T13:31:22;6.90;;;4.43;;
75400;SDS011;63974;47.538;18.972;2023-06-04T13:34:25;6.00;;;4.23;;
75400;SDS011;63974;47.538;18.972;2023-06-04T13:37:29;5.10;;;3.92;;
75400;SDS011;63974;47.538;18.972;2023-06-04T13:40:35;4.47;;;4.00;;
75400;SDS011;63974;47.538;18.972;2023-06-04T13:43:38;4.68;;;4.07;;
75400;SDS011;63974;47.538;18.972;2023-06-04T13:46:41;5.05;;;4.13;;
75400;SDS011;63974;47.538;18.972;2023-06-04T13:49:44;4.77;;;4.20;;
75400;SDS011;63974;47.538;18.972;2023-06-04T13:52:47;4.70;;;4.25;;
75400;SDS011;63974;47.538;18.972;2023-06-04T13:55:50;6.30;;;4.22;;
75400;SDS011;63974;47.538;18.972;2023-06-04T13:58:59;4.53;;;3.72;;
75400;SDS011;63974;47.538;18.972;2023-06-04T14:02:02;5.07;;;4.55;;
75400;SDS011;63974;47.538;18.972;2023-06-04T14:05:05;5.83;;;4.30;;
75400;SDS011;63974;47.538;18.972;2023-06-04T14:08:09;6.28;;;4.80;;
75400;SDS011;63974;47.538;18.972;2023-06-04T14:11:11;6.03;;;4.55;;
75400;SDS011;63974;47.538;18.972;2023-06-04T14:14:14;4.50;;;4.10;;
75400;SDS011;63974;47.538;18.972;2023-06-04T14:17:17;5.88;;;4.50;;
75400;SDS011;63974;47.538;18.972;2023-06-04T14:20:20;5.90;;;4.40;;
75400;SDS011;63974;47.538;18.972;2023-06-04T14:23:23;5.43;;;5.03;;
75400;SDS011;63974;47.538;18.972;2023-06-04T14:26:25;6.22;;;4.55;;
75400;SDS011;63974;47.538;18.972;2023-06-04T14:29:28;6.22;;;4.68;;
75400;SDS011;63974;47.538;18.972;2023-06-04T14:32:31;6.05;;;5.15;;
75400;SDS011;63974;47.538;18.972;2023-06-04T14:35:36;5.37;;;4.30;;
75400;SDS011;63974;47.538;18.972;2023-06-04T14:38:41;6.13;;;4.32;;
75400;SDS011;63974;47.538;18.972;2023-06-04T14:41:43;5.72;;;5.22;;
75400;SDS011;63974;47.538;18.972;2023-06-04T14:44:46;5.97;;;4.80;;
75400;SDS011;63974;47.538;18.972;2023-06-04T14:47:49;8.43;;;5.25;;
75400;SDS011;63974;47.538;18.972;2023-06-04T14:51:13;7.53;;;5.13;;
75400;SDS011;63974;47.538;18.972;2023-06-04T14:54:17;5.28;;;4.68;;
75400;SDS011;63974;47.538;18.972;2023-06-04T14:57:19;5.63;;;5.13;;
75400;SDS011;63974;47.538;18.972;2023-06-04T15:00:22;5.65;;;5.15;;
75400;SDS011;63974;47.538;18.972;2023-06-04T15:03:25;6.00;;;5.40;;
75400;SDS011;63974;47.538;18.972;2023-06-04T15:06:29;6.90;;;4.40;;
75400;SDS011;63974;47.538;18.972;2023-06-04T15:09:32;5.15;;;4.65;;
75400;SDS011;63974;47.538;18.972;2023-06-04T15:12:35;5.85;;;5.07;;
75400;SDS011;63974;47.538;18.972;2023-06-04T15:15:41;5.53;;;4.68;;
75400;SDS011;63974;47.538;18.972;2023-06-04T15:18:44;6.50;;;5.05;;
75400;SDS011;63974;47.538;18.972;2023-06-04T15:21:47;5.00;;;4.50;;
75400;SDS011;63974;47.538;18.972;2023-06-04T15:24:50;5.07;;;4.63;;
75400;SDS011;63974;47.538;18.972;2023-06-04T15:27:53;6.60;;;4.88;;
75400;SDS011;63974;47.538;18.972;2023-06-04T15:30:56;5.43;;;4.45;;
75400;SDS011;63974;47.538;18.972;2023-06-04T15:33:58;7.97;;;5.45;;
75400;SDS011;63974;47.538;18.972;2023-06-04T15:37:01;5.50;;;5.07;;
75400;SDS011;63974;47.538;18.972;2023-06-04T15:40:05;8.07;;;5.88;;
75400;SDS011;63974;47.538;18.972;2023-06-04T15:43:10;6.07;;;5.57;;
75400;SDS011;63974;47.538;18.972;2023-06-04T15:46:12;5.20;;;4.68;;
75400;SDS011;63974;47.538;18.972;2023-06-04T15:49:15;5.40;;;4.82;;
75400;SDS011;63974;47.538;18.972;2023-06-04T15:52:19;6.13;;;5.03;;
75400;SDS011;63974;47.538;18.972;2023-06-04T15:55:22;5.10;;;4.60;;
75400;SDS011;63974;47.538;18.972;2023-06-04T15:58:24;5.43;;;4.85;;
75400;SDS011;63974;47.538;18.972;2023-06-04T16:01:28;5.50;;;4.97;;
75400;SDS011;63974;47.538;18.972;2023-06-04T16:04:31;8.75;;;4.97;;
75400;SDS011;63974;47.538;18.972;2023-06-04T16:07:34;6.70;;;4.97;;
75400;SDS011;63974;47.538;18.972;2023-06-04T16:10:37;5.47;;;4.97;;
75400;SDS011;63974;47.538;18.972;2023-06-04T16:13:40;6.43;;;5.82;;
75400;SDS011;63974;47.538;18.972;2023-06-04T16:16:43;8.63;;;5.30;;
75400;SDS011;63974;47.538;18.972;2023-06-04T16:19:48;5.43;;;4.75;;
75400;SDS011;63974;47.538;18.972;2023-06-04T16:22:51;5.03;;;4.53;;
75400;SDS011;63974;47.538;18.972;2023-06-04T16:25:54;5.97;;;4.45;;
75400;SDS011;63974;47.538;18.972;2023-06-04T16:28:57;5.32;;;4.82;;
75400;SDS011;63974;47.538;18.972;2023-06-04T16:32:00;5.22;;;4.57;;
75400;SDS011;63974;47.538;18.972;2023-06-04T16:35:02;8.50;;;4.68;;
75400;SDS011;63974;47.538;18.972;2023-06-04T16:38:05;5.37;;;4.63;;
75400;SDS011;63974;47.538;18.972;2023-06-04T16:41:08;6.53;;;5.05;;
75400;SDS011;63974;47.538;18.972;2023-06-04T16:44:11;6.93;;;4.72;;
75400;SDS011;63974;47.538;18.972;2023-06-04T16:47:13;7.25;;;5.13;;
75400;SDS011;63974;47.538;18.972;2023-06-04T16:50:17;5.20;;;4.70;;
75400;SDS011;63974;47.538;18.972;2023-06-04T16:53:21;6.37;;;5.33;;
75400;SDS011;63974;47.538;18.972;2023-06-04T16:56:24;6.07;;;4.80;;
75400;SDS011;63974;47.538;18.972;2023-06-04T16:59:27;5.22;;;4.70;;
75400;SDS011;63974;47.538;18.972;2023-06-04T17:02:32;5.68;;;5.13;;
75400;SDS011;63974;47.538;18.972;2023-06-04T17:05:35;7.85;;;4.70;;
75400;SDS011;63974;47.538;18.972;2023-06-04T17:08:38;8.20;;;5.20;;
75400;SDS011;63974;47.538;18.972;2023-06-04T17:11:42;5.20;;;4.57;;
75400;SDS011;63974;47.538;18.972;2023-06-04T17:14:46;6.47;;;5.05;;
75400;SDS011;63974;47.538;18.972;2023-06-04T17:17:49;7.30;;;4.75;;
75400;SDS011;63974;47.538;18.972;2023-06-04T17:20:52;5.40;;;4.50;;
75400;SDS011;63974;47.538;18.972;2023-06-04T17:23:55;8.67;;;4.50;;
75400;SDS011;63974;47.538;18.972;2023-06-04T17:27:00;5.85;;;5.32;;
75400;SDS011;63974;47.538;18.972;2023-06-04T17:30:03;5.45;;;4.88;;
75400;SDS011;63974;47.538;18.972;2023-06-04T17:33:06;5.80;;;4.90;;
75400;SDS011;63974;47.538;18.972;2023-06-04T17:36:09;5.63;;;4.70;;
75400;SDS011;63974;47.538;18.972;2023-06-04T17:39:12;6.53;;;4.67;;
75400;SDS011;63974;47.538;18.972;2023-06-04T17:42:15;6.63;;;4.60;;
75400;SDS011;63974;47.538;18.972;2023-06-04T17:45:18;6.18;;;4.93;;
75400;SDS011;63974;47.538;18.972;2023-06-04T17:48:20;6.60;;;5.20;;
75400;SDS011;63974;47.538;18.972;2023-06-04T17:51:23;7.53;;;4.80;;
75400;SDS011;63974;47.538;18.972;2023-06-04T17:54:26;5.07;;;4.20;;
75400;SDS011;63974;47.538;18.972;2023-06-04T17:57:29;5.97;;;4.05;;
75400;SDS011;63974;47.538;18.972;2023-06-04T18:00:32;4.82;;;3.65;;
75400;SDS011;63974;47.538;18.972;2023-06-04T18:03:36;4.43;;;3.90;;
75400;SDS011;63974;47.538;18.972;2023-06-04T18:06:40;8.82;;;3.70;;
75400;SDS011;63974;47.538;18.972;2023-06-04T18:09:43;4.70;;;3.43;;
75400;SDS011;63974;47.538;18.972;2023-06-04T18:12:47;4.72;;;3.67;;
75400;SDS011;63974;47.538;18.972;2023-06-04T18:15:50;4.10;;;3.30;;
75400;SDS011;63974;47.538;18.972;2023-06-04T18:18:53;4.78;;;3.65;;